Current Weather

Mors Muni - JR Washburn Field

Mors Muni - JR Washburn Field, Illinois (KC09)

Report from: Friday, February 3, 2023 10:55 PM CST
Current time: Friday, February 3, 2023 11:26 PM CST

Nearby weather
Weather history
Weather forecast

Temperature-13.4°C (7.9°F)
Dew point-17.6°C (0.3°F)
Winds Calm
Visibility10 mi. (16.1 km)
Altimeter30.49 in.Hg (1033 mB)
Relative humidity71 %
Density altitude-4,211 ft. (-1,284 m)
Remarks Fully automated report
Automated weather observing station with precipitation discriminator
Flight conditions Visual Meteorological Conditions
Raw dataKC09 040455Z AUTO 00000KT 10SM M13/M18 A3049 RMK AO2 T11341176
An unhandled exception has occurred. See browser dev tools for details. Reload 🗙